createdAt,value
2023-05-07T00:02:02.911Z,11.27
2023-05-07T00:05:05.038Z,11.33
2023-05-07T00:08:06.778Z,11.24
2023-05-07T00:11:08.445Z,11.21
2023-05-07T00:14:12.330Z,11.22
2023-05-07T00:17:13.916Z,11.08
2023-05-07T00:20:15.517Z,11.19
2023-05-07T00:23:17.172Z,11.32
2023-05-07T00:26:18.762Z,11.26
2023-05-07T00:29:20.410Z,11.18
2023-05-07T00:32:22.108Z,11.19
2023-05-07T00:35:23.893Z,11.10
2023-05-07T00:38:25.658Z,11.12
2023-05-07T00:41:27.378Z,11.14
2023-05-07T00:44:29.623Z,11.13
2023-05-07T00:47:32.561Z,11.06
2023-05-07T00:50:34.302Z,11.06
2023-05-07T00:53:35.894Z,11.03
2023-05-07T00:56:37.542Z,11.09
2023-05-07T00:59:39.408Z,11.25
2023-05-07T01:02:41.174Z,11.28
2023-05-07T01:05:42.913Z,11.28
2023-05-07T01:08:44.829Z,11.30
2023-05-07T01:11:46.595Z,11.22
2023-05-07T01:14:49.896Z,11.21
2023-05-07T01:17:52.544Z,11.25
2023-05-07T01:20:54.208Z,11.13
2023-05-07T01:23:55.789Z,11.04
2023-05-07T01:26:57.441Z,11.07
2023-05-07T01:29:59.162Z,10.89
2023-05-07T01:33:10.398Z,10.93
2023-05-07T01:36:12.084Z,10.87
2023-05-07T01:39:13.666Z,10.89
2023-05-07T01:42:15.373Z,10.82
2023-05-07T01:45:17.016Z,10.82
2023-05-07T01:48:18.656Z,10.62
2023-05-07T01:51:21.411Z,10.67
2023-05-07T01:54:29.223Z,10.69
2023-05-07T01:57:30.931Z,10.74
2023-05-07T02:00:32.753Z,10.80
2023-05-07T02:03:34.381Z,10.72
2023-05-07T02:06:36.158Z,10.72
2023-05-07T02:09:37.780Z,10.77
2023-05-07T02:12:39.365Z,10.70
2023-05-07T02:15:41.013Z,10.58
2023-05-07T02:18:42.666Z,10.52
2023-05-07T02:21:44.306Z,10.48
2023-05-07T02:24:45.974Z,10.40
2023-05-07T02:27:47.591Z,10.44
2023-05-07T02:30:49.148Z,10.44
2023-05-07T02:33:50.900Z,10.39
2023-05-07T02:36:52.537Z,10.46
2023-05-07T02:39:54.155Z,10.41
2023-05-07T02:42:55.892Z,10.27
2023-05-07T02:46:04.014Z,10.24
2023-05-07T02:49:05.622Z,10.16
2023-05-07T02:52:07.545Z,10.06
2023-05-07T02:55:09.486Z,10.08
2023-05-07T02:58:11.269Z,10.02
2023-05-07T03:01:14.961Z,10.11
2023-05-07T03:04:16.781Z,10.11
2023-05-07T03:07:18.557Z,10.03
2023-05-07T03:10:20.096Z,10.12
2023-05-07T03:13:22.383Z,10.10
2023-05-07T03:16:24.292Z,10.21
2023-05-07T03:19:27.584Z,10.22
2023-05-07T03:22:29.225Z,10.19
2023-05-07T03:25:33.698Z,10.11
2023-05-07T03:28:35.956Z,10.21
2023-05-07T03:31:37.505Z,10.19
2023-05-07T03:34:38.993Z,10.12
2023-05-07T03:37:40.555Z,9.93
2023-05-07T03:40:42.022Z,9.95
2023-05-07T03:43:43.446Z,9.98
2023-05-07T03:46:44.935Z,10.01
2023-05-07T03:49:46.506Z,9.91
2023-05-07T03:52:47.946Z,9.83
2023-05-07T03:55:49.347Z,9.88
2023-05-07T03:58:50.753Z,9.82
2023-05-07T04:01:52.237Z,9.83
2023-05-07T04:04:53.791Z,9.92
2023-05-07T04:07:55.272Z,10.00
2023-05-07T04:10:57.163Z,9.97
2023-05-07T04:14:01.177Z,10.02
2023-05-07T04:17:03.816Z,10.05
2023-05-07T04:20:05.660Z,10.01
2023-05-07T04:23:07.057Z,10.03
2023-05-07T04:26:08.466Z,9.96
2023-05-07T04:29:09.890Z,9.98
2023-05-07T04:32:11.493Z,10.04
2023-05-07T04:35:13.021Z,10.01
2023-05-07T04:38:14.481Z,10.11
2023-05-07T04:41:16.136Z,10.04
2023-05-07T04:44:17.887Z,10.02
2023-05-07T04:47:19.388Z,10.00
2023-05-07T04:50:21.051Z,10.09
2023-05-07T04:53:22.878Z,10.27
2023-05-07T04:56:24.322Z,10.08
2023-05-07T04:59:25.857Z,10.17
2023-05-07T05:02:27.371Z,10.32
2023-05-07T05:05:28.808Z,10.48
2023-05-07T05:08:30.875Z,10.52
2023-05-07T05:11:32.608Z,10.68
2023-05-07T05:14:36.620Z,10.85
2023-05-07T05:17:38.097Z,10.90
2023-05-07T05:20:39.614Z,11.04
2023-05-07T05:23:41.344Z,11.07
2023-05-07T05:26:42.817Z,10.87
2023-05-07T05:29:44.294Z,11.07
2023-05-07T05:32:45.800Z,11.10
2023-05-07T05:35:47.330Z,11.22
2023-05-07T05:38:48.796Z,11.37
2023-05-07T05:41:52.976Z,11.39
2023-05-07T05:44:54.436Z,11.48
2023-05-07T05:47:57.025Z,11.61
2023-05-07T05:50:58.470Z,11.60
2023-05-07T05:53:59.934Z,11.63
2023-05-07T05:57:01.356Z,11.70
2023-05-07T06:00:03.571Z,11.90
2023-05-07T06:03:05.102Z,12.01
2023-05-07T06:06:06.728Z,12.24
2023-05-07T06:09:08.315Z,12.46
2023-05-07T06:12:09.775Z,12.40
2023-05-07T06:15:11.429Z,12.44
2023-05-07T06:18:14.068Z,12.60
2023-05-07T06:21:16.235Z,12.52
2023-05-07T06:24:17.795Z,12.75
2023-05-07T06:27:19.265Z,13.01
2023-05-07T06:30:20.755Z,13.29
2023-05-07T06:33:22.240Z,13.47
2023-05-07T06:36:23.741Z,13.65
2023-05-07T06:39:25.292Z,13.77
2023-05-07T06:42:27.489Z,13.83
2023-05-07T06:45:28.992Z,13.89
2023-05-07T06:48:30.450Z,14.06
2023-05-07T06:51:31.864Z,14.12
2023-05-07T06:54:33.339Z,14.16
2023-05-07T06:57:34.843Z,14.32
2023-05-07T07:00:36.337Z,14.41
2023-05-07T07:03:37.790Z,14.16
2023-05-07T07:06:39.260Z,14.36
2023-05-07T07:09:40.792Z,14.67
2023-05-07T07:12:42.476Z,14.52
2023-05-07T07:15:44.177Z,14.58
2023-05-07T07:18:46.077Z,14.79
2023-05-07T07:21:47.517Z,15.17
2023-05-07T07:24:49.179Z,15.33
2023-05-07T07:27:50.729Z,15.18
2023-05-07T07:30:52.291Z,15.27
2023-05-07T07:34:01.010Z,15.28
2023-05-07T07:37:08.033Z,15.48
2023-05-07T07:40:12.322Z,15.71
2023-05-07T07:43:13.913Z,15.89
2023-05-07T07:46:17.803Z,16.28
2023-05-07T07:49:19.405Z,16.61
2023-05-07T07:52:21.074Z,16.62
2023-05-07T07:55:24.084Z,16.90
2023-05-07T07:58:27.217Z,16.86
2023-05-07T08:01:33.979Z,16.86
2023-05-07T08:04:39.019Z,16.76
2023-05-07T08:07:40.769Z,17.36
2023-05-07T08:10:45.915Z,17.56
2023-05-07T08:13:47.491Z,17.78
2023-05-07T08:16:51.622Z,18.39
2023-05-07T08:19:53.285Z,18.89
2023-05-07T08:22:55.056Z,19.40
2023-05-07T08:25:56.822Z,19.48
2023-05-07T08:28:58.550Z,19.85
2023-05-07T08:32:00.138Z,19.76
2023-05-07T08:35:01.905Z,19.62
2023-05-07T08:38:41.248Z,20.21
2023-05-07T08:41:44.012Z,19.86
2023-05-07T08:44:50.952Z,19.76
2023-05-07T08:47:53.010Z,19.61
2023-05-07T08:50:56.808Z,19.93
2023-05-07T08:54:11.255Z,20.09
2023-05-07T08:57:14.458Z,20.59
2023-05-07T09:01:07.791Z,21.02
2023-05-07T09:04:17.250Z,21.04
2023-05-07T09:07:22.911Z,20.43
2023-05-07T09:10:31.243Z,20.86
2023-05-07T09:13:38.887Z,20.90
2023-05-07T09:16:45.574Z,20.64
2023-05-07T09:19:47.338Z,20.94
2023-05-07T09:22:48.851Z,21.00
2023-05-07T09:25:55.706Z,21.06
2023-05-07T09:28:59.707Z,20.90
2023-05-07T09:32:02.483Z,20.88
2023-05-07T09:35:07.322Z,20.91
2023-05-07T09:38:44.493Z,21.50
2023-05-07T09:42:01.835Z,21.67
2023-05-07T09:45:09.289Z,21.30
2023-05-07T09:48:10.853Z,21.10
2023-05-07T09:51:21.585Z,21.51
2023-05-07T09:54:37.866Z,21.22
2023-05-07T10:02:05.326Z,21.14
2023-05-07T10:05:19.590Z,21.40
2023-05-07T10:09:01.540Z,21.91
2023-05-07T10:23:50.292Z,21.61
2023-05-07T10:35:52.973Z,21.48
2023-05-07T11:33:04.862Z,21.65
2023-05-07T11:36:07.997Z,21.37
2023-05-07T12:22:44.450Z,19.95
2023-05-07T12:29:04.663Z,20.05
2023-05-07T12:32:09.717Z,20.33
2023-05-07T12:35:11.437Z,20.37
2023-05-07T12:38:20.599Z,20.12
2023-05-07T12:41:38.516Z,20.18
2023-05-07T12:44:52.970Z,20.09
2023-05-07T12:47:55.695Z,20.18
2023-05-07T13:28:43.120Z,16.43
2023-05-07T13:31:50.573Z,16.54
2023-05-07T13:35:11.303Z,16.61
2023-05-07T13:38:28.466Z,16.56
2023-05-07T13:45:41.309Z,16.20
2023-05-07T13:48:57.664Z,16.01
2023-05-07T13:52:01.144Z,16.09
2023-05-07T13:55:05.450Z,16.07
2023-05-07T13:58:09.966Z,15.90
2023-05-07T14:01:15.482Z,15.98
2023-05-07T14:04:23.270Z,16.17
2023-05-07T14:07:25.796Z,16.20
2023-05-07T14:10:27.398Z,16.27
2023-05-07T14:13:29.000Z,16.37
2023-05-07T14:16:33.694Z,16.99
2023-05-07T14:19:35.268Z,17.14
2023-05-07T14:22:36.726Z,17.16
2023-05-07T14:25:38.149Z,17.73
2023-05-07T14:28:40.699Z,17.47
2023-05-07T14:31:42.416Z,17.47
2023-05-07T14:34:43.913Z,17.74
2023-05-07T14:37:45.347Z,17.75
2023-05-07T14:40:46.776Z,17.76
2023-05-07T14:43:51.062Z,17.75
2023-05-07T14:46:52.889Z,17.48
2023-05-07T14:49:54.340Z,17.26
2023-05-07T14:52:55.897Z,17.20
2023-05-07T14:55:57.567Z,17.25
2023-05-07T14:58:59.048Z,17.23
2023-05-07T15:02:01.247Z,17.26
2023-05-07T15:05:04.103Z,17.40
2023-05-07T15:08:06.185Z,17.40
2023-05-07T15:11:07.744Z,17.29
2023-05-07T15:14:10.356Z,17.25
2023-05-07T15:17:11.850Z,17.27
2023-05-07T15:20:13.241Z,17.34
2023-05-07T15:23:15.123Z,17.32
2023-05-07T15:26:16.630Z,17.31
2023-05-07T15:29:18.186Z,17.39
2023-05-07T15:32:19.619Z,17.60
2023-05-07T15:35:22.959Z,17.65
2023-05-07T15:38:24.390Z,17.76
2023-05-07T15:41:26.008Z,17.80
2023-05-07T15:44:29.604Z,18.02
2023-05-07T15:47:31.575Z,18.18
2023-05-07T15:50:33.024Z,18.14
2023-05-07T15:53:34.897Z,18.30
2023-05-07T15:56:36.378Z,18.04
2023-05-07T15:59:42.834Z,18.06
2023-05-07T16:02:44.383Z,18.11
2023-05-07T16:05:46.406Z,18.06
2023-05-07T16:08:48.187Z,18.09
2023-05-07T16:11:49.592Z,18.05
2023-05-07T16:14:51.983Z,18.17
2023-05-07T16:17:57.891Z,18.16
2023-05-07T16:21:00.701Z,17.81
2023-05-07T16:24:02.636Z,17.74
2023-05-07T16:27:04.590Z,17.82
2023-05-07T16:30:06.645Z,18.02
2023-05-07T16:33:08.425Z,18.27
2023-05-07T16:36:09.863Z,18.21
2023-05-07T16:39:11.316Z,18.09
2023-05-07T16:42:12.954Z,18.09
2023-05-07T16:45:14.779Z,17.99
2023-05-07T16:48:16.475Z,18.07
2023-05-07T16:51:18.062Z,18.05
2023-05-07T16:54:19.630Z,17.99
2023-05-07T16:57:21.238Z,17.85
2023-05-07T17:00:22.725Z,17.74
2023-05-07T17:03:24.297Z,17.76
2023-05-07T17:06:28.370Z,17.62
2023-05-07T17:09:30.752Z,17.73
2023-05-07T17:12:32.756Z,17.55
2023-05-07T17:15:36.552Z,17.62
2023-05-07T17:18:38.015Z,17.62
2023-05-07T17:21:39.441Z,17.54
2023-05-07T17:24:40.997Z,17.45
2023-05-07T17:27:42.494Z,17.39
2023-05-07T17:30:44.016Z,17.22
2023-05-07T17:33:45.860Z,17.06
2023-05-07T17:36:47.922Z,17.04
2023-05-07T17:39:49.550Z,16.90
2023-05-07T17:42:52.495Z,16.72
2023-05-07T17:45:56.039Z,16.65
2023-05-07T17:48:58.174Z,16.60
2023-05-07T17:51:59.683Z,16.55
2023-05-07T17:55:02.938Z,16.48
2023-05-07T17:58:06.387Z,16.56
2023-05-07T18:01:07.887Z,16.61
2023-05-07T18:04:09.388Z,16.52
2023-05-07T18:07:11.035Z,16.22
2023-05-07T18:10:12.913Z,16.21
2023-05-07T18:13:14.635Z,16.10
2023-05-07T18:16:17.629Z,16.01
2023-05-07T18:19:19.153Z,16.07
2023-05-07T18:22:20.655Z,15.93
2023-05-07T18:25:22.213Z,15.76
2023-05-07T18:28:23.665Z,15.52
2023-05-07T18:31:25.232Z,15.64
2023-05-07T18:38:32.069Z,15.67
2023-05-07T18:41:33.586Z,15.65
2023-05-07T18:44:41.532Z,15.60
2023-05-07T18:47:43.068Z,15.57
2023-05-07T18:50:44.884Z,15.56
2023-05-07T18:53:46.359Z,15.49
2023-05-07T18:56:47.804Z,15.43
2023-05-07T18:59:49.366Z,15.40
2023-05-07T19:02:51.547Z,15.30
2023-05-07T19:05:53.126Z,15.27
2023-05-07T19:08:54.648Z,15.15
2023-05-07T19:11:56.510Z,15.15
2023-05-07T19:14:58.889Z,15.16
2023-05-07T19:18:02.748Z,15.16
2023-05-07T19:21:14.736Z,15.05
2023-05-07T19:24:19.093Z,15.08
2023-05-07T19:27:22.862Z,15.06
2023-05-07T19:30:26.814Z,14.99
2023-05-07T19:33:34.330Z,14.79
2023-05-07T19:36:35.771Z,14.67
2023-05-07T19:39:39.380Z,14.62
2023-05-07T19:42:40.903Z,14.50
2023-05-07T19:45:43.498Z,14.46
2023-05-07T19:48:45.797Z,14.41
2023-05-07T19:51:47.331Z,14.50
2023-05-07T19:54:51.071Z,14.41
2023-05-07T19:57:52.685Z,14.36
2023-05-07T20:00:54.419Z,14.40
2023-05-07T20:03:56.420Z,14.48
2023-05-07T20:06:58.021Z,14.43
2023-05-07T20:09:59.565Z,14.32
2023-05-07T20:13:03.752Z,14.19
2023-05-07T20:16:05.424Z,14.18
2023-05-07T20:19:06.930Z,14.23
2023-05-07T20:22:08.379Z,14.35
2023-05-07T20:25:10.565Z,14.34
2023-05-07T20:28:11.986Z,14.22
2023-05-07T20:31:13.697Z,14.01
2023-05-07T20:34:15.147Z,13.96
2023-05-07T20:37:16.881Z,14.00
2023-05-07T20:40:18.401Z,14.00
2023-05-07T20:43:19.812Z,14.06
2023-05-07T20:46:22.871Z,14.00
2023-05-07T20:49:24.715Z,13.99
2023-05-07T20:52:26.157Z,13.96
2023-05-07T20:55:27.585Z,13.90
2023-05-07T20:58:29.318Z,13.89
2023-05-07T21:01:30.962Z,13.90
2023-05-07T21:04:32.547Z,13.59
2023-05-07T21:07:34.044Z,13.73
2023-05-07T21:10:35.551Z,13.64
2023-05-07T21:13:36.999Z,13.41
2023-05-07T21:16:38.564Z,13.50
2023-05-07T21:19:40.543Z,13.54
2023-05-07T21:22:41.990Z,13.79
2023-05-07T21:25:47.090Z,13.80
2023-05-07T21:28:48.908Z,13.82
2023-05-07T21:31:50.356Z,13.78
2023-05-07T21:34:51.808Z,13.86
2023-05-07T21:37:53.308Z,13.69
2023-05-07T21:40:54.750Z,13.65
2023-05-07T21:43:56.183Z,13.68
2023-05-07T21:46:57.581Z,13.81
2023-05-07T21:49:59.018Z,13.83
2023-05-07T21:53:00.516Z,13.90
2023-05-07T21:56:05.254Z,13.90
2023-05-07T21:59:06.783Z,13.94
2023-05-07T22:02:08.340Z,13.96
2023-05-07T22:05:09.833Z,13.92
2023-05-07T22:08:11.255Z,13.92
2023-05-07T22:11:12.721Z,13.95
2023-05-07T22:14:14.151Z,13.96
2023-05-07T22:17:15.564Z,13.77
2023-05-07T22:20:16.977Z,13.76
2023-05-07T22:23:18.438Z,13.63
2023-05-07T22:26:20.135Z,13.74
2023-05-07T22:29:23.449Z,13.70
2023-05-07T22:32:24.967Z,13.68
2023-05-07T22:35:26.453Z,13.71
2023-05-07T22:38:27.917Z,13.45
2023-05-07T22:41:29.417Z,13.53
2023-05-07T22:44:30.847Z,13.57
2023-05-07T22:47:32.257Z,13.58
2023-05-07T22:50:37.801Z,13.49
2023-05-07T22:53:39.337Z,13.47
2023-05-07T22:56:40.840Z,13.52
2023-05-07T22:59:42.260Z,13.50
2023-05-07T23:02:43.867Z,13.64
2023-05-07T23:05:45.402Z,13.57
2023-05-07T23:08:47.209Z,13.58
2023-05-07T23:11:48.662Z,13.62
2023-05-07T23:14:50.158Z,13.57
2023-05-07T23:17:51.683Z,13.52
2023-05-07T23:20:53.176Z,13.50
2023-05-07T23:23:54.610Z,13.55
2023-05-07T23:26:56.016Z,13.56
2023-05-07T23:29:57.474Z,13.61
2023-05-07T23:32:58.953Z,13.44
2023-05-07T23:36:00.763Z,13.46
2023-05-07T23:39:02.183Z,13.50
2023-05-07T23:42:04.042Z,13.52
2023-05-07T23:45:05.800Z,13.56
2023-05-07T23:48:07.234Z,13.60
2023-05-07T23:51:09.524Z,13.62
2023-05-07T23:54:10.948Z,13.50
2023-05-07T23:57:12.387Z,13.57
